sensor_id;sensor_type;location;lat;lon;timestamp;P1;durP1;ratioP1;P2;durP2;ratioP2
4676;SDS011;2352;48.180;11.478;2024-03-02T00:03:23;13.13;;;12.17;;
4676;SDS011;2352;48.180;11.478;2024-03-02T00:08:27;11.77;;;11.07;;
4676;SDS011;2352;48.180;11.478;2024-03-02T00:13:32;11.50;;;10.67;;
4676;SDS011;2352;48.180;11.478;2024-03-02T00:18:37;10.93;;;10.27;;
4676;SDS011;2352;48.180;11.478;2024-03-02T00:23:41;11.93;;;11.23;;
4676;SDS011;2352;48.180;11.478;2024-03-02T00:28:44;12.87;;;12.07;;
4676;SDS011;2352;48.180;11.478;2024-03-02T00:33:47;11.53;;;10.63;;
4676;SDS011;2352;48.180;11.478;2024-03-02T00:38:53;12.53;;;11.70;;
4676;SDS011;2352;48.180;11.478;2024-03-02T00:43:57;12.10;;;11.40;;
4676;SDS011;2352;48.180;11.478;2024-03-02T00:49:02;10.97;;;10.37;;
4676;SDS011;2352;48.180;11.478;2024-03-02T00:54:08;12.20;;;11.40;;
4676;SDS011;2352;48.180;11.478;2024-03-02T00:59:12;10.73;;;9.90;;
4676;SDS011;2352;48.180;11.478;2024-03-02T01:04:16;9.70;;;9.10;;
4676;SDS011;2352;48.180;11.478;2024-03-02T01:09:20;12.43;;;11.63;;
4676;SDS011;2352;48.180;11.478;2024-03-02T01:14:23;13.03;;;12.30;;
4676;SDS011;2352;48.180;11.478;2024-03-02T01:19:26;13.43;;;12.63;;
4676;SDS011;2352;48.180;11.478;2024-03-02T01:24:30;12.77;;;11.97;;
4676;SDS011;2352;48.180;11.478;2024-03-02T01:29:33;12.73;;;11.93;;
4676;SDS011;2352;48.180;11.478;2024-03-02T01:34:36;12.27;;;11.47;;
4676;SDS011;2352;48.180;11.478;2024-03-02T01:39:40;11.27;;;10.57;;
4676;SDS011;2352;48.180;11.478;2024-03-02T01:44:43;12.73;;;11.93;;
4676;SDS011;2352;48.180;11.478;2024-03-02T01:49:46;11.10;;;10.50;;
4676;SDS011;2352;48.180;11.478;2024-03-02T01:54:50;12.17;;;11.37;;
4676;SDS011;2352;48.180;11.478;2024-03-02T01:59:53;11.10;;;10.40;;
4676;SDS011;2352;48.180;11.478;2024-03-02T02:04:56;11.93;;;11.23;;
4676;SDS011;2352;48.180;11.478;2024-03-02T02:10:00;10.47;;;9.77;;
4676;SDS011;2352;48.180;11.478;2024-03-02T02:15:04;11.17;;;10.37;;
4676;SDS011;2352;48.180;11.478;2024-03-02T02:20:24;11.47;;;10.73;;
4676;SDS011;2352;48.180;11.478;2024-03-02T02:25:29;13.13;;;12.33;;
4676;SDS011;2352;48.180;11.478;2024-03-02T02:30:32;11.67;;;10.97;;
4676;SDS011;2352;48.180;11.478;2024-03-02T02:35:36;11.60;;;10.90;;
4676;SDS011;2352;48.180;11.478;2024-03-02T02:40:40;10.07;;;9.47;;
4676;SDS011;2352;48.180;11.478;2024-03-02T02:45:43;12.27;;;11.50;;
4676;SDS011;2352;48.180;11.478;2024-03-02T02:50:47;13.20;;;12.30;;
4676;SDS011;2352;48.180;11.478;2024-03-02T02:55:51;12.63;;;11.83;;
4676;SDS011;2352;48.180;11.478;2024-03-02T03:00:54;12.73;;;11.83;;
4676;SDS011;2352;48.180;11.478;2024-03-02T03:05:58;13.03;;;12.23;;
4676;SDS011;2352;48.180;11.478;2024-03-02T03:11:02;12.33;;;11.60;;
4676;SDS011;2352;48.180;11.478;2024-03-02T03:16:06;14.40;;;13.50;;
4676;SDS011;2352;48.180;11.478;2024-03-02T03:21:09;13.03;;;12.23;;
4676;SDS011;2352;48.180;11.478;2024-03-02T03:26:13;13.40;;;12.60;;
4676;SDS011;2352;48.180;11.478;2024-03-02T03:31:16;13.80;;;12.90;;
4676;SDS011;2352;48.180;11.478;2024-03-02T03:36:19;13.93;;;12.93;;
4676;SDS011;2352;48.180;11.478;2024-03-02T03:41:23;14.07;;;13.27;;
4676;SDS011;2352;48.180;11.478;2024-03-02T03:46:26;16.43;;;15.37;;
4676;SDS011;2352;48.180;11.478;2024-03-02T03:51:29;13.43;;;12.53;;
4676;SDS011;2352;48.180;11.478;2024-03-02T03:56:34;14.87;;;13.97;;
4676;SDS011;2352;48.180;11.478;2024-03-02T04:01:37;13.10;;;12.23;;
4676;SDS011;2352;48.180;11.478;2024-03-02T04:06:40;14.23;;;13.33;;
4676;SDS011;2352;48.180;11.478;2024-03-02T04:11:44;15.77;;;14.50;;
4676;SDS011;2352;48.180;11.478;2024-03-02T04:16:47;13.17;;;12.40;;
4676;SDS011;2352;48.180;11.478;2024-03-02T04:21:50;17.03;;;15.80;;
4676;SDS011;2352;48.180;11.478;2024-03-02T04:26:54;16.60;;;15.60;;
4676;SDS011;2352;48.180;11.478;2024-03-02T04:31:57;15.70;;;14.77;;
4676;SDS011;2352;48.180;11.478;2024-03-02T04:37:00;16.07;;;14.97;;
4676;SDS011;2352;48.180;11.478;2024-03-02T04:42:05;16.13;;;15.07;;
4676;SDS011;2352;48.180;11.478;2024-03-02T04:47:08;16.80;;;15.70;;
4676;SDS011;2352;48.180;11.478;2024-03-02T04:52:10;13.83;;;12.93;;
4676;SDS011;2352;48.180;11.478;2024-03-02T04:57:15;15.57;;;14.60;;
4676;SDS011;2352;48.180;11.478;2024-03-02T05:02:18;16.30;;;15.30;;
4676;SDS011;2352;48.180;11.478;2024-03-02T05:07:21;16.60;;;15.40;;
4676;SDS011;2352;48.180;11.478;2024-03-02T05:12:25;15.73;;;14.83;;
4676;SDS011;2352;48.180;11.478;2024-03-02T05:17:57;13.90;;;12.97;;
4676;SDS011;2352;48.180;11.478;2024-03-02T05:23:03;14.30;;;13.33;;
4676;SDS011;2352;48.180;11.478;2024-03-02T05:28:08;15.37;;;14.47;;
4676;SDS011;2352;48.180;11.478;2024-03-02T05:33:11;14.93;;;13.93;;
4676;SDS011;2352;48.180;11.478;2024-03-02T05:38:14;14.27;;;13.43;;
4676;SDS011;2352;48.180;11.478;2024-03-02T05:43:19;15.57;;;14.50;;
4676;SDS011;2352;48.180;11.478;2024-03-02T05:48:22;16.93;;;15.83;;
4676;SDS011;2352;48.180;11.478;2024-03-02T05:53:24;16.77;;;15.57;;
4676;SDS011;2352;48.180;11.478;2024-03-02T05:58:29;17.47;;;16.13;;
4676;SDS011;2352;48.180;11.478;2024-03-02T06:03:44;17.83;;;16.53;;
4676;SDS011;2352;48.180;11.478;2024-03-02T06:08:47;17.90;;;16.70;;
4676;SDS011;2352;48.180;11.478;2024-03-02T06:13:51;17.93;;;16.77;;
4676;SDS011;2352;48.180;11.478;2024-03-02T06:18:54;16.40;;;15.17;;
4676;SDS011;2352;48.180;11.478;2024-03-02T06:23:59;17.17;;;15.87;;
4676;SDS011;2352;48.180;11.478;2024-03-02T06:29:03;15.40;;;14.37;;
4676;SDS011;2352;48.180;11.478;2024-03-02T06:34:06;16.87;;;15.77;;
4676;SDS011;2352;48.180;11.478;2024-03-02T06:39:10;15.03;;;14.03;;
4676;SDS011;2352;48.180;11.478;2024-03-02T06:44:15;14.43;;;13.53;;
4676;SDS011;2352;48.180;11.478;2024-03-02T06:49:18;15.77;;;14.73;;
4676;SDS011;2352;48.180;11.478;2024-03-02T06:54:21;14.30;;;13.40;;
4676;SDS011;2352;48.180;11.478;2024-03-02T06:59:25;14.83;;;13.93;;
4676;SDS011;2352;48.180;11.478;2024-03-02T07:04:28;14.53;;;13.33;;
4676;SDS011;2352;48.180;11.478;2024-03-02T07:09:31;15.50;;;14.40;;
4676;SDS011;2352;48.180;11.478;2024-03-02T07:14:35;15.57;;;14.57;;
4676;SDS011;2352;48.180;11.478;2024-03-02T07:20:12;15.23;;;14.17;;
4676;SDS011;2352;48.180;11.478;2024-03-02T07:25:15;15.83;;;14.83;;
4676;SDS011;2352;48.180;11.478;2024-03-02T07:30:22;15.70;;;14.67;;
4676;SDS011;2352;48.180;11.478;2024-03-02T07:35:26;15.63;;;14.53;;
4676;SDS011;2352;48.180;11.478;2024-03-02T07:40:29;17.17;;;16.07;;
4676;SDS011;2352;48.180;11.478;2024-03-02T07:45:33;16.67;;;15.63;;
4676;SDS011;2352;48.180;11.478;2024-03-02T07:50:37;18.00;;;16.80;;
4676;SDS011;2352;48.180;11.478;2024-03-02T07:55:41;19.17;;;17.83;;
4676;SDS011;2352;48.180;11.478;2024-03-02T08:00:45;23.40;;;21.50;;
4676;SDS011;2352;48.180;11.478;2024-03-02T08:05:50;22.10;;;20.30;;
4676;SDS011;2352;48.180;11.478;2024-03-02T08:10:53;22.63;;;20.63;;
4676;SDS011;2352;48.180;11.478;2024-03-02T08:16:00;21.67;;;19.87;;
4676;SDS011;2352;48.180;11.478;2024-03-02T08:21:04;19.27;;;17.87;;
4676;SDS011;2352;48.180;11.478;2024-03-02T08:26:10;17.63;;;16.27;;
4676;SDS011;2352;48.180;11.478;2024-03-02T08:31:15;19.07;;;17.47;;
4676;SDS011;2352;48.180;11.478;2024-03-02T08:36:18;19.00;;;17.50;;
4676;SDS011;2352;48.180;11.478;2024-03-02T08:41:21;16.30;;;15.30;;
4676;SDS011;2352;48.180;11.478;2024-03-02T08:46:25;18.47;;;17.17;;
4676;SDS011;2352;48.180;11.478;2024-03-02T08:51:28;16.00;;;14.90;;
4676;SDS011;2352;48.180;11.478;2024-03-02T08:56:31;17.13;;;16.03;;
4676;SDS011;2352;48.180;11.478;2024-03-02T09:01:36;19.67;;;18.17;;
4676;SDS011;2352;48.180;11.478;2024-03-02T09:06:43;17.77;;;16.37;;
4676;SDS011;2352;48.180;11.478;2024-03-02T09:11:46;17.97;;;16.70;;
4676;SDS011;2352;48.180;11.478;2024-03-02T09:16:50;17.20;;;16.10;;
4676;SDS011;2352;48.180;11.478;2024-03-02T09:21:53;20.27;;;18.87;;
4676;SDS011;2352;48.180;11.478;2024-03-02T09:26:57;17.90;;;16.60;;
4676;SDS011;2352;48.180;11.478;2024-03-02T09:32:01;17.43;;;16.13;;
4676;SDS011;2352;48.180;11.478;2024-03-02T09:37:04;17.23;;;16.03;;
4676;SDS011;2352;48.180;11.478;2024-03-02T09:42:07;17.33;;;16.07;;
4676;SDS011;2352;48.180;11.478;2024-03-02T09:47:11;16.43;;;15.13;;
4676;SDS011;2352;48.180;11.478;2024-03-02T09:52:15;16.63;;;15.30;;
4676;SDS011;2352;48.180;11.478;2024-03-02T09:57:18;16.83;;;15.43;;
4676;SDS011;2352;48.180;11.478;2024-03-02T10:02:23;14.13;;;13.23;;
4676;SDS011;2352;48.180;11.478;2024-03-02T10:07:26;14.57;;;13.47;;
4676;SDS011;2352;48.180;11.478;2024-03-02T10:12:29;14.50;;;13.27;;
4676;SDS011;2352;48.180;11.478;2024-03-02T10:17:33;15.47;;;14.33;;
4676;SDS011;2352;48.180;11.478;2024-03-02T10:22:36;14.17;;;13.10;;
4676;SDS011;2352;48.180;11.478;2024-03-02T10:27:39;14.97;;;13.80;;
4676;SDS011;2352;48.180;11.478;2024-03-02T10:32:44;12.60;;;11.70;;
4676;SDS011;2352;48.180;11.478;2024-03-02T10:37:47;11.73;;;10.93;;
4676;SDS011;2352;48.180;11.478;2024-03-02T10:42:50;11.27;;;10.47;;
4676;SDS011;2352;48.180;11.478;2024-03-02T10:47:55;13.50;;;11.37;;
4676;SDS011;2352;48.180;11.478;2024-03-02T10:52:59;11.10;;;10.17;;
4676;SDS011;2352;48.180;11.478;2024-03-02T10:58:02;8.90;;;8.20;;
4676;SDS011;2352;48.180;11.478;2024-03-02T11:03:10;10.63;;;9.87;;
4676;SDS011;2352;48.180;11.478;2024-03-02T11:08:16;10.77;;;9.77;;
4676;SDS011;2352;48.180;11.478;2024-03-02T11:13:22;9.90;;;9.00;;
4676;SDS011;2352;48.180;11.478;2024-03-02T11:18:34;13.17;;;12.00;;
4676;SDS011;2352;48.180;11.478;2024-03-02T11:23:38;10.40;;;9.53;;
4676;SDS011;2352;48.180;11.478;2024-03-02T11:28:41;10.93;;;10.13;;
4676;SDS011;2352;48.180;11.478;2024-03-02T11:33:45;10.53;;;9.77;;
4676;SDS011;2352;48.180;11.478;2024-03-02T11:38:48;10.07;;;9.27;;
4676;SDS011;2352;48.180;11.478;2024-03-02T11:43:54;12.43;;;11.50;;
4676;SDS011;2352;48.180;11.478;2024-03-02T11:48:59;12.50;;;11.30;;
4676;SDS011;2352;48.180;11.478;2024-03-02T11:54:02;13.83;;;11.10;;
4676;SDS011;2352;48.180;11.478;2024-03-02T11:59:06;14.47;;;13.27;;
4676;SDS011;2352;48.180;11.478;2024-03-02T12:04:11;15.10;;;13.93;;
4676;SDS011;2352;48.180;11.478;2024-03-02T12:09:15;16.70;;;15.30;;
4676;SDS011;2352;48.180;11.478;2024-03-02T12:14:18;16.33;;;14.57;;
4676;SDS011;2352;48.180;11.478;2024-03-02T12:19:23;16.00;;;14.57;;
4676;SDS011;2352;48.180;11.478;2024-03-02T12:24:26;19.13;;;15.10;;
4676;SDS011;2352;48.180;11.478;2024-03-02T12:29:30;15.67;;;14.37;;
4676;SDS011;2352;48.180;11.478;2024-03-02T12:34:35;15.63;;;13.73;;
4676;SDS011;2352;48.180;11.478;2024-03-02T12:39:42;16.03;;;14.73;;
4676;SDS011;2352;48.180;11.478;2024-03-02T12:44:47;15.90;;;14.40;;
4676;SDS011;2352;48.180;11.478;2024-03-02T12:49:51;13.57;;;12.20;;
4676;SDS011;2352;48.180;11.478;2024-03-02T12:54:55;17.20;;;13.20;;
4676;SDS011;2352;48.180;11.478;2024-03-02T13:00:00;12.77;;;11.87;;
4676;SDS011;2352;48.180;11.478;2024-03-02T13:05:11;14.03;;;12.83;;
4676;SDS011;2352;48.180;11.478;2024-03-02T13:10:14;14.63;;;13.40;;
4676;SDS011;2352;48.180;11.478;2024-03-02T13:15:17;13.33;;;12.37;;
4676;SDS011;2352;48.180;11.478;2024-03-02T13:20:22;14.00;;;12.77;;
4676;SDS011;2352;48.180;11.478;2024-03-02T13:25:27;12.97;;;11.97;;
4676;SDS011;2352;48.180;11.478;2024-03-02T13:30:33;14.23;;;13.03;;
4676;SDS011;2352;48.180;11.478;2024-03-02T13:35:38;15.27;;;13.77;;
4676;SDS011;2352;48.180;11.478;2024-03-02T13:40:41;15.20;;;14.00;;
4676;SDS011;2352;48.180;11.478;2024-03-02T13:45:43;15.80;;;14.40;;
4676;SDS011;2352;48.180;11.478;2024-03-02T13:50:48;13.97;;;12.87;;
4676;SDS011;2352;48.180;11.478;2024-03-02T13:55:51;13.73;;;12.50;;
4676;SDS011;2352;48.180;11.478;2024-03-02T14:00:55;12.63;;;11.63;;
4676;SDS011;2352;48.180;11.478;2024-03-02T14:06:00;12.70;;;11.80;;
4676;SDS011;2352;48.180;11.478;2024-03-02T14:11:03;14.67;;;13.47;;
4676;SDS011;2352;48.180;11.478;2024-03-02T14:16:06;13.05;;;12.18;;
4676;SDS011;2352;48.180;11.478;2024-03-02T14:21:12;13.07;;;12.07;;
4676;SDS011;2352;48.180;11.478;2024-03-02T14:26:15;9.23;;;8.50;;
4676;SDS011;2352;48.180;11.478;2024-03-02T14:31:19;13.10;;;11.83;;
4676;SDS011;2352;48.180;11.478;2024-03-02T14:36:23;12.40;;;11.40;;
4676;SDS011;2352;48.180;11.478;2024-03-02T14:41:27;13.33;;;12.40;;
4676;SDS011;2352;48.180;11.478;2024-03-02T14:46:30;10.60;;;9.70;;
4676;SDS011;2352;48.180;11.478;2024-03-02T14:51:34;13.47;;;12.13;;
4676;SDS011;2352;48.180;11.478;2024-03-02T14:56:37;13.80;;;12.37;;
4676;SDS011;2352;48.180;11.478;2024-03-02T15:01:41;12.87;;;11.97;;
4676;SDS011;2352;48.180;11.478;2024-03-02T15:06:45;14.37;;;12.97;;
4676;SDS011;2352;48.180;11.478;2024-03-02T15:11:48;14.07;;;12.73;;
4676;SDS011;2352;48.180;11.478;2024-03-02T15:16:52;17.43;;;15.77;;
4676;SDS011;2352;48.180;11.478;2024-03-02T15:21:56;17.00;;;15.47;;
4676;SDS011;2352;48.180;11.478;2024-03-02T15:26:59;17.67;;;13.83;;
4676;SDS011;2352;48.180;11.478;2024-03-02T15:32:05;14.63;;;13.60;;
4676;SDS011;2352;48.180;11.478;2024-03-02T15:37:10;15.63;;;14.33;;
4676;SDS011;2352;48.180;11.478;2024-03-02T15:42:13;19.73;;;15.63;;
4676;SDS011;2352;48.180;11.478;2024-03-02T15:47:16;18.10;;;16.03;;
4676;SDS011;2352;48.180;11.478;2024-03-02T15:52:21;18.37;;;16.63;;
4676;SDS011;2352;48.180;11.478;2024-03-02T15:57:24;17.40;;;16.00;;
4676;SDS011;2352;48.180;11.478;2024-03-02T16:02:27;16.20;;;14.77;;
4676;SDS011;2352;48.180;11.478;2024-03-02T16:07:32;16.60;;;14.97;;
4676;SDS011;2352;48.180;11.478;2024-03-02T16:12:35;17.77;;;15.97;;
4676;SDS011;2352;48.180;11.478;2024-03-02T16:17:38;19.40;;;17.77;;
4676;SDS011;2352;48.180;11.478;2024-03-02T16:22:42;20.37;;;18.10;;
4676;SDS011;2352;48.180;11.478;2024-03-02T16:27:46;20.00;;;18.17;;
4676;SDS011;2352;48.180;11.478;2024-03-02T16:32:49;19.87;;;17.83;;
4676;SDS011;2352;48.180;11.478;2024-03-02T16:37:53;21.23;;;18.97;;
4676;SDS011;2352;48.180;11.478;2024-03-02T16:42:56;17.83;;;16.47;;
4676;SDS011;2352;48.180;11.478;2024-03-02T16:47:59;22.63;;;20.30;;
4676;SDS011;2352;48.180;11.478;2024-03-02T16:53:04;22.50;;;20.50;;
4676;SDS011;2352;48.180;11.478;2024-03-02T16:58:07;22.27;;;20.27;;
4676;SDS011;2352;48.180;11.478;2024-03-02T17:03:10;22.37;;;20.23;;
4676;SDS011;2352;48.180;11.478;2024-03-02T17:08:14;20.80;;;18.73;;
4676;SDS011;2352;48.180;11.478;2024-03-02T17:13:17;22.93;;;20.90;;
4676;SDS011;2352;48.180;11.478;2024-03-02T17:18:20;24.00;;;21.67;;
4676;SDS011;2352;48.180;11.478;2024-03-02T17:23:24;24.83;;;22.57;;
4676;SDS011;2352;48.180;11.478;2024-03-02T17:28:32;25.37;;;23.00;;
4676;SDS011;2352;48.180;11.478;2024-03-02T17:33:35;24.30;;;21.80;;
4676;SDS011;2352;48.180;11.478;2024-03-02T17:38:39;23.83;;;21.47;;
4676;SDS011;2352;48.180;11.478;2024-03-02T17:43:43;25.30;;;22.67;;
4676;SDS011;2352;48.180;11.478;2024-03-02T17:48:46;25.30;;;22.80;;
4676;SDS011;2352;48.180;11.478;2024-03-02T17:53:50;24.37;;;21.97;;
4676;SDS011;2352;48.180;11.478;2024-03-02T17:58:53;26.00;;;23.20;;
4676;SDS011;2352;48.180;11.478;2024-03-02T18:03:56;25.93;;;23.33;;
4676;SDS011;2352;48.180;11.478;2024-03-02T18:09:00;29.40;;;26.20;;
4676;SDS011;2352;48.180;11.478;2024-03-02T18:14:04;26.07;;;23.57;;
4676;SDS011;2352;48.180;11.478;2024-03-02T18:19:07;31.73;;;26.57;;
4676;SDS011;2352;48.180;11.478;2024-03-02T18:24:12;27.07;;;24.57;;
4676;SDS011;2352;48.180;11.478;2024-03-02T18:29:15;28.00;;;25.20;;
4676;SDS011;2352;48.180;11.478;2024-03-02T18:34:18;28.27;;;25.33;;
4676;SDS011;2352;48.180;11.478;2024-03-02T18:39:22;28.20;;;25.23;;
4676;SDS011;2352;48.180;11.478;2024-03-02T18:44:25;29.40;;;26.30;;
4676;SDS011;2352;48.180;11.478;2024-03-02T18:49:28;32.53;;;29.03;;
4676;SDS011;2352;48.180;11.478;2024-03-02T18:54:32;29.77;;;26.93;;
4676;SDS011;2352;48.180;11.478;2024-03-02T18:59:35;31.27;;;27.70;;
4676;SDS011;2352;48.180;11.478;2024-03-02T19:04:38;30.97;;;27.70;;
4676;SDS011;2352;48.180;11.478;2024-03-02T19:09:43;31.43;;;27.83;;
4676;SDS011;2352;48.180;11.478;2024-03-02T19:14:46;39.37;;;32.70;;
4676;SDS011;2352;48.180;11.478;2024-03-02T19:19:49;33.23;;;29.77;;
4676;SDS011;2352;48.180;11.478;2024-03-02T19:24:54;31.13;;;27.97;;
4676;SDS011;2352;48.180;11.478;2024-03-02T19:29:58;34.63;;;28.67;;
4676;SDS011;2352;48.180;11.478;2024-03-02T19:35:01;32.03;;;28.83;;
4676;SDS011;2352;48.180;11.478;2024-03-02T19:40:06;29.80;;;26.87;;
4676;SDS011;2352;48.180;11.478;2024-03-02T19:45:11;28.33;;;25.37;;
4676;SDS011;2352;48.180;11.478;2024-03-02T19:50:15;30.33;;;27.10;;
4676;SDS011;2352;48.180;11.478;2024-03-02T19:55:20;30.17;;;26.80;;
4676;SDS011;2352;48.180;11.478;2024-03-02T20:00:30;34.77;;;30.37;;
4676;SDS011;2352;48.180;11.478;2024-03-02T20:05:33;35.20;;;29.33;;
4676;SDS011;2352;48.180;11.478;2024-03-02T20:10:37;36.43;;;32.63;;
4676;SDS011;2352;48.180;11.478;2024-03-02T20:15:40;36.87;;;33.03;;
4676;SDS011;2352;48.180;11.478;2024-03-02T20:20:43;37.03;;;33.23;;
4676;SDS011;2352;48.180;11.478;2024-03-02T20:25:47;33.47;;;29.90;;
4676;SDS011;2352;48.180;11.478;2024-03-02T20:30:51;33.17;;;29.67;;
4676;SDS011;2352;48.180;11.478;2024-03-02T20:35:53;38.50;;;31.97;;
4676;SDS011;2352;48.180;11.478;2024-03-02T20:40:58;35.20;;;31.47;;
4676;SDS011;2352;48.180;11.478;2024-03-02T20:46:01;37.13;;;33.03;;
4676;SDS011;2352;48.180;11.478;2024-03-02T20:51:07;32.27;;;28.87;;
4676;SDS011;2352;48.180;11.478;2024-03-02T20:56:12;35.70;;;29.70;;
4676;SDS011;2352;48.180;11.478;2024-03-02T21:01:15;33.97;;;30.27;;
4676;SDS011;2352;48.180;11.478;2024-03-02T21:06:18;32.20;;;28.50;;
4676;SDS011;2352;48.180;11.478;2024-03-02T21:11:23;32.30;;;28.83;;
4676;SDS011;2352;48.180;11.478;2024-03-02T21:16:26;32.40;;;28.80;;
4676;SDS011;2352;48.180;11.478;2024-03-02T21:21:29;33.00;;;29.37;;
4676;SDS011;2352;48.180;11.478;2024-03-02T21:26:37;35.33;;;31.63;;
4676;SDS011;2352;48.180;11.478;2024-03-02T21:31:42;36.87;;;32.07;;
4676;SDS011;2352;48.180;11.478;2024-03-02T21:36:45;33.43;;;29.80;;
4676;SDS011;2352;48.180;11.478;2024-03-02T21:41:49;32.83;;;29.53;;
4676;SDS011;2352;48.180;11.478;2024-03-02T21:46:53;35.10;;;31.57;;
4676;SDS011;2352;48.180;11.478;2024-03-02T21:51:56;34.73;;;30.30;;
4676;SDS011;2352;48.180;11.478;2024-03-02T21:57:00;33.73;;;29.67;;
4676;SDS011;2352;48.180;11.478;2024-03-02T22:02:04;35.10;;;30.77;;
4676;SDS011;2352;48.180;11.478;2024-03-02T22:07:08;40.27;;;33.87;;
4676;SDS011;2352;48.180;11.478;2024-03-02T22:12:12;33.83;;;30.23;;
4676;SDS011;2352;48.180;11.478;2024-03-02T22:17:15;40.33;;;32.20;;
4676;SDS011;2352;48.180;11.478;2024-03-02T22:22:18;37.20;;;33.27;;
4676;SDS011;2352;48.180;11.478;2024-03-02T22:27:22;33.13;;;29.27;;
4676;SDS011;2352;48.180;11.478;2024-03-02T22:32:25;33.93;;;29.30;;
4676;SDS011;2352;48.180;11.478;2024-03-02T22:37:29;33.97;;;30.37;;
4676;SDS011;2352;48.180;11.478;2024-03-02T22:42:33;34.37;;;30.67;;
4676;SDS011;2352;48.180;11.478;2024-03-02T22:47:36;36.50;;;32.60;;
4676;SDS011;2352;48.180;11.478;2024-03-02T22:52:39;37.47;;;33.67;;
4676;SDS011;2352;48.180;11.478;2024-03-02T22:57:43;37.53;;;33.47;;
4676;SDS011;2352;48.180;11.478;2024-03-02T23:02:46;41.50;;;33.80;;
4676;SDS011;2352;48.180;11.478;2024-03-02T23:07:49;40.40;;;35.30;;
4676;SDS011;2352;48.180;11.478;2024-03-02T23:12:53;37.33;;;32.47;;
4676;SDS011;2352;48.180;11.478;2024-03-02T23:17:56;41.20;;;33.20;;
4676;SDS011;2352;48.180;11.478;2024-03-02T23:23:00;35.10;;;31.40;;
4676;SDS011;2352;48.180;11.478;2024-03-02T23:28:07;43.07;;;35.73;;
4676;SDS011;2352;48.180;11.478;2024-03-02T23:33:10;44.07;;;34.70;;
4676;SDS011;2352;48.180;11.478;2024-03-02T23:38:13;38.63;;;33.17;;
4676;SDS011;2352;48.180;11.478;2024-03-02T23:43:17;36.90;;;33.00;;
4676;SDS011;2352;48.180;11.478;2024-03-02T23:48:21;35.40;;;31.47;;
4676;SDS011;2352;48.180;11.478;2024-03-02T23:53:23;35.90;;;31.90;;
4676;SDS011;2352;48.180;11.478;2024-03-02T23:58:28;42.43;;;37.83;;
